Time;durP1;ratioP1;P1;durP2;ratioP2;P2;SDS_P1;SDS_P2;PMS_P1;PMS_P2;Temp;Humidity;BMP_temperature;BMP_pressure;BME280_temperature;BME280_humidity;BME280_pressure;Samples;Min_cycle;Max_cycle;Signal;HPM_P1;HPM_P2
2022/11/12 00:02:16;;;;;;;24.97;7.67;;;10.20;99.90;;;;;;935724;150;27406;-80
2022/11/12 00:04:42;;;;;;;21.87;7.90;;;10.20;99.90;;;;;;935492;150;27383;-79
2022/11/12 00:07:09;;;;;;;33.10;8.30;;;10.10;99.90;;;;;;937257;150;27297;-80
2022/11/12 00:09:35;;;;;;;23.77;7.63;;;10.10;99.90;;;;;;941271;149;27657;-79
2022/11/12 00:12:02;;;;;;;31.40;7.70;;;10.10;99.90;;;;;;924763;151;27465;-79
2022/11/12 00:14:29;;;;;;;32.67;7.63;;;10.10;99.90;;;;;;935190;150;27336;-81
2022/11/12 00:16:55;;;;;;;22.70;7.67;;;10.10;99.90;;;;;;935787;150;27480;-79
2022/11/12 00:19:22;;;;;;;19.60;7.77;;;10.10;99.90;;;;;;935183;150;27374;-79
2022/11/12 00:21:48;;;;;;;25.17;7.93;;;10.10;99.90;;;;;;935614;150;27320;-79
2022/11/12 00:24:15;;;;;;;14.13;6.57;;;10.10;99.90;;;;;;935660;150;27316;-79
2022/11/12 00:26:42;;;;;;;16.83;7.57;;;10.10;99.90;;;;;;935011;151;27426;-79
2022/11/12 00:29:08;;;;;;;26.53;7.77;;;10.10;99.90;;;;;;935692;150;27496;-79
2022/11/12 00:31:36;;;;;;;12.83;6.23;;;10.00;99.90;;;;;;940915;149;27351;-79
2022/11/12 00:34:01;;;;;;;10.60;6.20;;;10.00;99.90;;;;;;941593;149;27372;-79
2022/11/12 00:36:28;;;;;;;8.20;6.10;;;10.00;99.90;;;;;;941270;149;27324;-79
2022/11/12 00:38:54;;;;;;;8.93;6.13;;;10.00;99.90;;;;;;941621;149;27380;-81
2022/11/12 00:41:21;;;;;;;11.87;6.20;;;10.00;99.90;;;;;;941453;149;27446;-80
2022/11/12 00:43:48;;;;;;;13.10;6.60;;;10.00;99.90;;;;;;937563;150;27368;-79
2022/11/12 00:46:14;;;;;;;14.87;7.47;;;10.00;99.90;;;;;;927659;152;27318;-79
2022/11/12 00:48:41;;;;;;;13.47;6.93;;;9.90;99.90;;;;;;927512;152;27327;-80
2022/11/12 00:51:07;;;;;;;9.20;6.50;;;9.90;99.90;;;;;;921589;154;27312;-80
2022/11/12 00:53:34;;;;;;;7.73;6.93;;;9.90;99.90;;;;;;926406;152;27466;-79
2022/11/12 00:56:01;;;;;;;8.07;6.27;;;9.90;99.90;;;;;;926222;154;27396;-79
2022/11/12 00:58:30;;;;;;;14.60;6.97;;;9.90;99.90;;;;;;938305;151;27315;-79
2022/11/12 01:00:56;;;;;;;15.83;8.03;;;9.90;99.90;;;;;;939495;152;27422;-80
2022/11/12 01:03:23;;;;;;;22.03;8.27;;;9.90;99.90;;;;;;939251;152;27313;-81
2022/11/12 01:05:50;;;;;;;29.20;9.20;;;9.90;99.90;;;;;;939474;152;27970;-79
2022/11/12 01:08:16;;;;;;;22.80;7.57;;;9.90;99.90;;;;;;939102;152;27383;-80
2022/11/12 01:10:43;;;;;;;26.20;8.57;;;9.80;99.90;;;;;;938601;150;28267;-79
2022/11/12 01:13:09;;;;;;;24.20;8.10;;;9.80;99.90;;;;;;939206;152;27446;-79
2022/11/12 01:15:36;;;;;;;14.90;7.13;;;9.80;99.90;;;;;;939186;151;27362;-79
2022/11/12 01:18:03;;;;;;;17.40;8.00;;;9.80;99.90;;;;;;920991;152;27497;-79
2022/11/12 01:20:29;;;;;;;32.83;8.70;;;9.80;99.90;;;;;;922344;154;27390;-79
2022/11/12 01:22:56;;;;;;;52.00;9.73;;;9.80;99.90;;;;;;935318;152;27441;-79
2022/11/12 01:25:22;;;;;;;40.50;9.03;;;9.80;99.90;;;;;;939052;151;27358;-80
2022/11/12 01:27:49;;;;;;;53.40;9.40;;;9.80;99.90;;;;;;939269;152;27296;-80
2022/11/12 01:30:15;;;;;;;41.43;10.30;;;9.70;99.90;;;;;;939430;152;27347;-80
2022/11/12 01:32:42;;;;;;;83.17;11.13;;;9.70;99.90;;;;;;913118;154;27509;-79
2022/11/12 01:35:09;;;;;;;47.70;9.00;;;9.70;99.90;;;;;;926066;155;27289;-80
2022/11/12 01:37:35;;;;;;;59.00;10.57;;;9.70;99.90;;;;;;926332;153;27330;-79
2022/11/12 01:40:02;;;;;;;40.50;9.63;;;9.70;99.90;;;;;;926466;155;27465;-79
2022/11/12 01:42:31;;;;;;;51.53;9.83;;;9.60;99.90;;;;;;926386;154;27470;-80
2022/11/12 01:44:58;;;;;;;34.40;9.23;;;9.60;99.90;;;;;;926737;152;27416;-80
2022/11/12 01:47:30;;;;;;;34.50;9.23;;;9.60;99.90;;;;;;927616;152;27382;-79
2022/11/12 01:50:00;;;;;;;39.97;8.73;;;9.60;99.90;;;;;;928202;152;27449;-79
2022/11/12 01:52:31;;;;;;;53.33;9.10;;;9.60;99.90;;;;;;927805;152;27464;-80
2022/11/12 01:54:58;;;;;;;58.43;9.07;;;9.60;99.90;;;;;;927424;152;27944;-79
2022/11/12 01:57:27;;;;;;;60.27;10.00;;;9.60;99.90;;;;;;927754;152;27338;-80
2022/11/12 01:59:54;;;;;;;46.43;8.83;;;9.60;99.90;;;;;;928478;152;27329;-80
2022/11/12 02:02:20;;;;;;;47.13;9.53;;;9.60;99.90;;;;;;927639;152;28004;-80
2022/11/12 02:04:47;;;;;;;29.90;9.23;;;9.50;99.90;;;;;;927781;152;27984;-80
2022/11/12 02:07:14;;;;;;;43.87;10.13;;;9.50;99.90;;;;;;928051;151;27419;-79
2022/11/12 02:09:40;;;;;;;34.87;9.00;;;9.50;99.90;;;;;;927935;151;27873;-80
2022/11/12 02:13:56;;;;;;;31.23;8.23;;;9.50;99.90;;;;;;927886;151;27404;-80
2022/11/12 02:14:33;;;;;;;40.83;9.37;;;9.40;99.90;;;;;;925552;151;27400;-79
2022/11/12 02:17:00;;;;;;;49.57;9.20;;;9.40;99.90;;;;;;928632;151;27393;-80
2022/11/12 02:19:26;;;;;;;25.73;7.83;;;9.40;99.90;;;;;;928016;151;27330;-80
2022/11/12 02:21:53;;;;;;;29.10;7.97;;;9.40;99.90;;;;;;927905;151;27773;-80
2022/11/12 02:24:20;;;;;;;31.90;8.60;;;9.40;99.90;;;;;;928166;151;27356;-79
2022/11/12 02:26:46;;;;;;;17.57;7.50;;;9.40;99.90;;;;;;927917;151;27478;-79
2022/11/12 02:29:13;;;;;;;31.23;7.33;;;9.40;99.90;;;;;;927865;151;27368;-79
2022/11/12 02:31:39;;;;;;;13.10;6.63;;;9.40;99.90;;;;;;928284;151;27455;-80
2022/11/12 02:34:06;;;;;;;24.93;7.30;;;9.40;99.90;;;;;;927888;151;27433;-80
2022/11/12 02:36:33;;;;;;;15.30;6.70;;;9.40;99.90;;;;;;930027;151;27873;-79
2022/11/12 02:38:59;;;;;;;31.33;8.00;;;9.40;99.90;;;;;;929046;151;27404;-79
2022/11/12 02:41:26;;;;;;;21.17;7.27;;;9.40;99.90;;;;;;928120;151;27381;-80
2022/11/12 02:43:52;;;;;;;26.23;7.73;;;9.40;99.90;;;;;;928899;151;27326;-79
2022/11/12 02:46:19;;;;;;;18.50;7.07;;;9.30;99.90;;;;;;927980;151;27364;-79
2022/11/12 02:48:45;;;;;;;38.97;8.03;;;9.30;99.90;;;;;;927583;151;27366;-79
2022/11/12 02:51:12;;;;;;;27.63;7.40;;;9.30;99.90;;;;;;927819;151;27465;-80
2022/11/12 02:53:39;;;;;;;18.80;6.77;;;9.30;99.90;;;;;;928664;151;27393;-79
2022/11/12 02:56:05;;;;;;;30.67;8.00;;;9.30;99.90;;;;;;928448;148;27713;-80
2022/11/12 02:58:32;;;;;;;16.47;6.73;;;9.30;99.90;;;;;;930345;151;27298;-80
2022/11/12 03:00:58;;;;;;;28.67;7.07;;;9.30;99.90;;;;;;930015;148;27733;-80
2022/11/12 03:03:25;;;;;;;26.83;6.83;;;9.30;99.90;;;;;;931031;148;27426;-80
2022/11/12 03:05:54;;;;;;;22.43;6.93;;;9.20;99.90;;;;;;929192;151;27384;-79
2022/11/12 03:08:21;;;;;;;14.80;6.50;;;9.20;99.90;;;;;;928381;151;27373;-80
2022/11/12 03:10:47;;;;;;;33.93;7.50;;;9.20;99.90;;;;;;928073;151;27337;-79
2022/11/12 03:13:14;;;;;;;32.00;7.60;;;9.20;99.90;;;;;;928129;151;27352;-79
2022/11/12 03:15:41;;;;;;;20.73;6.57;;;9.20;99.90;;;;;;928282;151;27342;-80
2022/11/12 03:18:07;;;;;;;29.33;7.77;;;9.10;99.90;;;;;;928062;151;27443;-79
2022/11/12 03:20:34;;;;;;;27.77;7.70;;;9.10;99.90;;;;;;928061;151;27418;-79
2022/11/12 03:23:00;;;;;;;21.67;7.53;;;9.10;99.90;;;;;;927977;151;27455;-80
2022/11/12 03:25:27;;;;;;;25.50;6.97;;;9.10;99.90;;;;;;927347;151;27322;-79
2022/11/12 03:27:57;;;;;;;31.97;8.00;;;9.10;99.90;;;;;;928351;151;27357;-81
2022/11/12 03:30:23;;;;;;;27.83;8.10;;;9.10;99.90;;;;;;922144;151;27385;-79
2022/11/12 03:32:50;;;;;;;22.37;6.57;;;9.10;99.90;;;;;;927862;151;27381;-79
2022/11/12 03:35:16;;;;;;;29.40;8.20;;;9.10;99.90;;;;;;928917;151;27467;-79
2022/11/12 03:37:43;;;;;;;13.00;6.70;;;9.10;99.90;;;;;;928517;151;27341;-79
2022/11/12 03:40:09;;;;;;;13.10;6.60;;;9.10;99.90;;;;;;927804;151;27514;-80
2022/11/12 03:42:36;;;;;;;15.17;6.07;;;9.10;99.90;;;;;;927705;151;27478;-79
2022/11/12 03:45:03;;;;;;;15.37;6.37;;;9.10;99.90;;;;;;927612;151;27377;-79
2022/11/12 03:47:29;;;;;;;39.33;8.47;;;9.10;99.90;;;;;;934367;151;27539;-79
2022/11/12 03:49:56;;;;;;;16.10;6.70;;;9.10;99.90;;;;;;935771;151;27379;-80
2022/11/12 03:52:22;;;;;;;45.17;9.33;;;9.10;99.90;;;;;;935571;151;27920;-80
2022/11/12 03:54:49;;;;;;;30.00;6.87;;;9.10;99.90;;;;;;935516;151;27748;-79
2022/11/12 03:57:16;;;;;;;18.50;7.13;;;9.10;99.90;;;;;;935419;151;27480;-79
2022/11/12 03:59:42;;;;;;;23.43;6.90;;;9.10;99.90;;;;;;935041;151;27348;-79
2022/11/12 04:02:13;;;;;;;25.83;6.90;;;9.00;99.90;;;;;;935376;151;27360;-79
2022/11/12 04:10:05;;;;;;;14.90;6.93;;;9.00;99.90;;;;;;935906;151;27516;-79
2022/11/12 04:15:16;;;;;;;7.40;5.77;;;8.90;99.90;;;;;;935817;151;27469;-79
2022/11/12 04:23:12;;;;;;;35.20;8.33;;;8.90;99.90;;;;;;935581;151;27323;-78
2022/11/12 04:28:23;;;;;;;43.43;8.00;;;8.90;99.90;;;;;;935565;151;27472;-78
2022/11/12 04:30:51;;;;;;;44.63;7.97;;;8.90;99.90;;;;;;935594;151;27473;-78
2022/11/12 04:33:18;;;;;;;46.67;8.63;;;8.80;99.90;;;;;;935344;151;27386;-79
2022/11/12 04:35:44;;;;;;;14.00;6.43;;;8.80;99.90;;;;;;935561;151;27364;-79
2022/11/12 04:38:11;;;;;;;51.17;8.17;;;8.80;99.90;;;;;;935211;151;27370;-78
2022/11/12 04:46:07;;;;;;;33.37;7.03;;;8.70;99.90;;;;;;934803;151;27473;-78
2022/11/12 04:48:33;;;;;;;35.20;8.23;;;8.70;99.90;;;;;;929132;151;28259;-79
2022/11/12 04:51:02;;;;;;;29.77;6.60;;;8.70;99.90;;;;;;928531;151;27305;-78
2022/11/12 04:53:29;;;;;;;28.63;7.27;;;8.70;99.90;;;;;;925764;151;27428;-78
2022/11/12 04:55:56;;;;;;;14.27;5.87;;;8.70;99.90;;;;;;927962;151;27454;-78
2022/11/12 04:58:22;;;;;;;36.10;8.13;;;8.70;99.90;;;;;;928590;149;27403;-78
2022/11/12 05:00:49;;;;;;;36.50;8.50;;;8.70;99.90;;;;;;928420;151;27392;-78
2022/11/12 05:03:15;;;;;;;24.43;6.50;;;8.70;99.90;;;;;;927945;151;27439;-79
2022/11/12 05:05:42;;;;;;;43.13;8.73;;;8.70;99.90;;;;;;928117;151;27439;-79
2022/11/12 05:08:09;;;;;;;23.63;7.63;;;8.70;99.90;;;;;;929113;151;27891;-79
2022/11/12 05:10:35;;;;;;;38.07;7.57;;;8.70;99.90;;;;;;928581;151;27490;-79
2022/11/12 05:13:02;;;;;;;18.30;6.50;;;8.70;99.90;;;;;;928197;151;27966;-79
2022/11/12 05:15:28;;;;;;;27.37;7.40;;;8.70;99.90;;;;;;929591;151;27360;-78
2022/11/12 05:17:55;;;;;;;38.60;8.20;;;8.70;99.90;;;;;;928746;151;27289;-78
2022/11/12 05:20:21;;;;;;;31.93;8.37;;;8.70;99.90;;;;;;928062;151;27465;-78
2022/11/12 05:22:48;;;;;;;36.93;7.73;;;8.70;99.90;;;;;;928628;151;27387;-78
2022/11/12 05:25:15;;;;;;;35.07;7.80;;;8.70;99.90;;;;;;928172;151;27514;-78
2022/11/12 05:27:41;;;;;;;30.00;7.10;;;8.70;99.90;;;;;;928205;151;27452;-78
2022/11/12 05:30:08;;;;;;;32.97;7.53;;;8.70;99.90;;;;;;928079;151;27373;-78
2022/11/12 05:32:35;;;;;;;19.53;6.90;;;8.70;99.90;;;;;;927978;151;27298;-78
2022/11/12 05:35:01;;;;;;;17.67;6.97;;;8.70;99.90;;;;;;927512;151;27329;-78
2022/11/12 05:37:28;;;;;;;24.33;7.37;;;8.70;99.90;;;;;;929545;151;27899;-78
2022/11/12 05:39:54;;;;;;;24.03;7.73;;;8.70;99.90;;;;;;928607;151;27396;-78
2022/11/12 05:42:21;;;;;;;31.40;6.70;;;8.70;99.90;;;;;;928298;151;27294;-78
2022/11/12 05:44:48;;;;;;;17.97;6.20;;;8.70;99.90;;;;;;929181;151;27357;-78
2022/11/12 05:47:15;;;;;;;21.87;6.33;;;8.70;99.90;;;;;;929884;151;27498;-78
2022/11/12 05:49:41;;;;;;;28.37;7.00;;;8.70;99.90;;;;;;931759;152;27388;-79
2022/11/12 05:52:07;;;;;;;21.77;6.57;;;8.70;99.90;;;;;;932514;152;27485;-79
2022/11/12 05:54:34;;;;;;;30.57;7.80;;;8.70;99.90;;;;;;932082;152;28095;-79
2022/11/12 05:57:00;;;;;;;24.63;7.27;;;8.70;99.90;;;;;;932815;152;27337;-78
2022/11/12 05:59:27;;;;;;;20.90;7.53;;;8.70;99.90;;;;;;932327;152;28026;-78
2022/11/12 06:01:54;;;;;;;29.53;6.80;;;8.70;99.90;;;;;;932525;152;27383;-78
2022/11/12 06:04:22;;;;;;;22.47;7.33;;;8.70;99.90;;;;;;932733;151;27485;-79
2022/11/12 06:06:47;;;;;;;19.23;7.13;;;8.70;99.90;;;;;;932416;152;27496;-78
2022/11/12 06:09:13;;;;;;;14.77;6.80;;;8.70;99.90;;;;;;932158;152;27384;-78
2022/11/12 06:11:40;;;;;;;20.50;7.10;;;8.70;99.90;;;;;;932033;152;27892;-78
2022/11/12 06:14:07;;;;;;;30.20;7.30;;;8.70;99.90;;;;;;932254;152;27422;-78
2022/11/12 06:16:33;;;;;;;20.90;6.77;;;8.70;99.90;;;;;;931637;152;27391;-78
2022/11/12 06:19:00;;;;;;;18.93;6.67;;;8.70;99.90;;;;;;931967;152;27381;-78
2022/11/12 06:21:26;;;;;;;16.53;6.50;;;8.70;99.90;;;;;;931809;152;27422;-78
2022/11/12 06:23:53;;;;;;;11.87;5.90;;;8.70;99.90;;;;;;932088;152;27426;-78
2022/11/12 06:26:19;;;;;;;8.70;5.87;;;8.70;99.90;;;;;;931231;152;27785;-78
2022/11/12 06:28:46;;;;;;;6.23;5.20;;;8.60;99.90;;;;;;932495;152;27850;-78
2022/11/12 06:31:13;;;;;;;6.57;5.00;;;8.60;99.90;;;;;;932631;152;27481;-78
2022/11/12 06:33:39;;;;;;;10.20;5.50;;;8.60;99.90;;;;;;932080;152;27426;-78
2022/11/12 06:36:06;;;;;;;6.13;5.13;;;8.60;99.90;;;;;;932203;152;27343;-78
2022/11/12 06:38:32;;;;;;;7.03;4.63;;;8.60;99.90;;;;;;932598;152;27293;-78
2022/11/12 06:40:59;;;;;;;5.90;5.30;;;8.60;99.90;;;;;;932216;151;27793;-79
2022/11/12 06:43:26;;;;;;;5.73;5.17;;;8.60;99.90;;;;;;932473;152;27501;-79
2022/11/12 06:45:52;;;;;;;8.73;5.13;;;8.60;99.90;;;;;;931687;152;29430;-79
2022/11/12 06:48:19;;;;;;;5.83;5.30;;;8.60;99.90;;;;;;930287;151;27455;-78
2022/11/12 06:50:45;;;;;;;6.40;5.80;;;8.60;99.90;;;;;;928666;151;27483;-79
2022/11/12 06:53:12;;;;;;;5.37;4.83;;;8.60;99.90;;;;;;929337;151;27439;-79
2022/11/12 06:55:39;;;;;;;8.17;5.57;;;8.70;99.90;;;;;;928322;151;27384;-79
2022/11/12 06:58:05;;;;;;;9.73;7.80;;;8.70;99.90;;;;;;927828;151;28246;-79
2022/11/12 07:00:32;;;;;;;8.20;6.37;;;8.70;99.90;;;;;;928081;151;27677;-79
2022/11/12 07:02:58;;;;;;;6.13;5.57;;;8.70;99.90;;;;;;928428;151;27427;-79
2022/11/12 07:05:25;;;;;;;8.13;6.50;;;8.70;99.90;;;;;;928101;151;27423;-79
2022/11/12 07:07:51;;;;;;;6.73;5.70;;;8.80;99.90;;;;;;928356;151;27472;-78
2022/11/12 07:10:18;;;;;;;6.37;5.77;;;8.80;99.90;;;;;;927157;151;27405;-78
2022/11/12 07:12:45;;;;;;;6.33;5.57;;;8.90;99.90;;;;;;927532;151;27407;-78
2022/11/12 07:15:11;;;;;;;5.67;5.13;;;8.90;99.90;;;;;;928042;151;27377;-78
2022/11/12 07:17:38;;;;;;;5.93;5.30;;;8.90;99.90;;;;;;928654;151;27426;-78
2022/11/12 07:20:04;;;;;;;6.33;5.70;;;9.00;99.90;;;;;;928471;151;27450;-78
2022/11/12 07:22:31;;;;;;;5.73;5.23;;;9.00;99.90;;;;;;928081;151;27400;-78
2022/11/12 07:24:58;;;;;;;5.70;5.20;;;9.00;99.90;;;;;;928803;151;28038;-78
2022/11/12 07:27:24;;;;;;;5.33;4.83;;;9.00;99.90;;;;;;928257;151;27294;-78
2022/11/12 07:29:51;;;;;;;5.70;5.13;;;9.10;99.90;;;;;;928318;151;27360;-78
2022/11/12 07:32:17;;;;;;;6.33;5.60;;;9.10;99.90;;;;;;929261;151;27440;-78
2022/11/12 07:34:44;;;;;;;5.60;5.10;;;9.10;99.90;;;;;;928180;151;27388;-78
2022/11/12 07:37:10;;;;;;;5.87;5.20;;;9.10;99.90;;;;;;927903;151;27388;-78
2022/11/12 07:39:37;;;;;;;5.53;5.00;;;9.20;99.90;;;;;;928063;151;27361;-78
2022/11/12 07:42:04;;;;;;;6.03;5.43;;;9.20;99.90;;;;;;928980;151;27333;-78
2022/11/12 07:44:30;;;;;;;6.77;6.17;;;9.30;99.90;;;;;;928641;148;27372;-78
2022/11/12 07:46:57;;;;;;;5.97;5.43;;;9.30;99.90;;;;;;928322;151;27395;-78
2022/11/12 07:49:23;;;;;;;5.93;5.43;;;9.40;99.90;;;;;;928417;150;27423;-78
2022/11/12 07:51:50;;;;;;;5.63;5.13;;;9.40;99.90;;;;;;927605;153;27491;-78
2022/11/12 07:54:17;;;;;;;5.73;5.23;;;9.40;99.90;;;;;;926768;153;27286;-78
2022/11/12 07:56:43;;;;;;;6.23;4.77;;;9.40;99.90;;;;;;926870;153;27483;-79
2022/11/12 07:59:10;;;;;;;8.30;6.30;;;9.40;99.90;;;;;;929033;150;27792;-78
2022/11/12 08:01:39;;;;;;;8.27;5.90;;;9.40;99.90;;;;;;926386;153;27360;-79
2022/11/12 08:04:05;;;;;;;6.50;5.90;;;9.40;99.90;;;;;;926602;153;27418;-78
2022/11/12 08:06:32;;;;;;;9.20;6.57;;;9.50;99.90;;;;;;926251;150;27470;-78
2022/11/12 08:08:58;;;;;;;9.13;6.63;;;9.50;99.90;;;;;;929168;151;27378;-78
2022/11/12 08:11:25;;;;;;;8.27;5.57;;;9.50;99.90;;;;;;928966;153;27375;-78
2022/11/12 08:13:52;;;;;;;6.87;6.10;;;9.50;99.90;;;;;;926106;153;27508;-78
2022/11/12 08:16:18;;;;;;;9.77;5.53;;;9.50;99.90;;;;;;924255;150;27358;-78
2022/11/12 08:18:45;;;;;;;15.40;6.00;;;9.40;99.90;;;;;;928523;153;27438;-78
2022/11/12 08:21:12;;;;;;;11.43;5.97;;;9.50;99.90;;;;;;925718;150;27301;-78
2022/11/12 08:23:38;;;;;;;10.27;6.57;;;9.40;99.90;;;;;;927441;150;27400;-78
2022/11/12 08:26:05;;;;;;;10.47;6.37;;;9.40;99.90;;;;;;927368;153;27376;-78
2022/11/12 08:28:31;;;;;;;17.50;5.63;;;9.40;99.90;;;;;;926889;150;27445;-78
2022/11/12 08:30:58;;;;;;;19.00;6.43;;;9.50;99.90;;;;;;928855;152;27351;-78
2022/11/12 08:33:24;;;;;;;19.43;6.97;;;9.40;99.90;;;;;;926270;153;27321;-78
2022/11/12 08:35:51;;;;;;;13.43;5.87;;;9.40;99.90;;;;;;924011;153;27351;-78
2022/11/12 08:38:18;;;;;;;6.77;5.60;;;9.40;99.90;;;;;;926820;153;27457;-78
2022/11/12 08:40:44;;;;;;;11.47;6.30;;;9.40;99.90;;;;;;924850;152;27383;-78
2022/11/12 08:43:11;;;;;;;26.57;8.93;;;9.40;99.90;;;;;;924557;150;27398;-78
2022/11/12 08:45:37;;;;;;;20.60;8.17;;;9.40;99.90;;;;;;924775;153;27929;-78
2022/11/12 08:48:04;;;;;;;42.03;8.97;;;9.40;99.90;;;;;;928521;153;27301;-78
2022/11/12 08:50:30;;;;;;;15.20;7.43;;;9.40;99.90;;;;;;927464;150;27427;-78
2022/11/12 08:53:03;;;;;;;18.67;7.53;;;9.40;99.90;;;;;;928180;151;27342;-78
2022/11/12 08:55:29;;;;;;;9.90;6.23;;;9.40;99.90;;;;;;927756;151;27434;-78
2022/11/12 08:58:00;;;;;;;53.57;10.13;;;9.40;99.90;;;;;;928416;151;27341;-78
2022/11/12 09:00:23;;;;;;;25.27;7.67;;;9.40;99.90;;;;;;928073;151;27492;-78
2022/11/12 09:02:49;;;;;;;27.87;7.53;;;9.40;99.90;;;;;;928103;151;27479;-78
2022/11/12 09:05:16;;;;;;;30.17;8.43;;;9.40;99.90;;;;;;927262;151;28476;-78
2022/11/12 09:07:42;;;;;;;37.63;8.97;;;9.40;99.90;;;;;;927657;151;27693;-79
2022/11/12 09:10:09;;;;;;;33.40;8.73;;;9.40;99.90;;;;;;927170;151;27486;-78
2022/11/12 09:12:35;;;;;;;18.63;7.30;;;9.40;99.90;;;;;;927136;151;27434;-79
2022/11/12 09:15:02;;;;;;;16.80;7.77;;;9.40;99.90;;;;;;927755;151;27474;-78
2022/11/12 09:17:29;;;;;;;23.80;8.83;;;9.40;99.90;;;;;;931863;151;27337;-78
2022/11/12 09:19:55;;;;;;;29.60;8.50;;;9.40;99.90;;;;;;929694;151;27466;-79
2022/11/12 09:22:22;;;;;;;15.40;7.27;;;9.40;99.90;;;;;;930360;150;27447;-79
2022/11/12 09:24:48;;;;;;;39.67;9.57;;;9.40;99.90;;;;;;929454;151;27340;-79
2022/11/12 09:27:15;;;;;;;30.17;8.57;;;9.50;99.90;;;;;;927162;151;28183;-79
2022/11/12 09:29:42;;;;;;;12.23;8.03;;;9.50;99.90;;;;;;928054;151;27399;-79
2022/11/12 09:32:08;;;;;;;32.77;8.70;;;9.50;99.90;;;;;;927924;151;28835;-78
2022/11/12 09:34:35;;;;;;;24.47;8.50;;;9.60;99.90;;;;;;927645;151;27340;-78
2022/11/12 09:37:01;;;;;;;18.00;7.57;;;9.60;99.90;;;;;;927452;151;27450;-79
2022/11/12 09:39:28;;;;;;;10.00;8.10;;;9.70;99.90;;;;;;927671;151;27454;-79
2022/11/12 09:41:55;;;;;;;10.53;8.03;;;9.70;99.90;;;;;;926624;151;27897;-79
2022/11/12 09:44:23;;;;;;;17.43;8.50;;;9.80;99.90;;;;;;928212;151;28716;-79
2022/11/12 09:46:54;;;;;;;13.77;9.03;;;9.90;99.90;;;;;;927290;151;27759;-78
2022/11/12 09:49:29;;;;;;;14.43;7.80;;;9.90;99.90;;;;;;926203;151;27451;-78
2022/11/12 09:51:56;;;;;;;13.80;8.17;;;10.00;99.90;;;;;;921624;151;27432;-78
2022/11/12 09:54:25;;;;;;;8.87;7.97;;;10.10;99.90;;;;;;927683;151;27476;-78
2022/11/12 09:56:52;;;;;;;14.67;8.53;;;10.10;99.90;;;;;;927473;151;27660;-78
2022/11/12 09:59:18;;;;;;;8.63;7.63;;;10.20;99.90;;;;;;927738;151;27357;-78
2022/11/12 10:02:12;;;;;;;17.90;7.83;;;10.30;99.90;;;;;;926984;151;27330;-78
2022/11/12 10:04:51;;;;;;;10.07;7.60;;;10.40;99.90;;;;;;927683;151;27372;-78
2022/11/12 10:07:39;;;;;;;11.20;8.27;;;10.50;99.90;;;;;;926714;151;27478;-79
2022/11/12 10:10:19;;;;;;;9.63;7.37;;;10.60;99.90;;;;;;926362;151;27385;-78
2022/11/12 10:12:57;;;;;;;7.83;6.40;;;10.70;99.90;;;;;;925493;151;27426;-78
2022/11/12 10:18:48;;;;;;;8.83;7.63;;;10.80;99.90;;;;;;905163;154;27650;-78
2022/11/12 10:21:14;;;;;;;9.77;7.07;;;10.90;99.90;;;;;;926737;151;27396;-78
2022/11/12 10:23:41;;;;;;;7.77;6.97;;;10.90;99.90;;;;;;927855;151;27683;-79
2022/11/12 10:26:10;;;;;;;7.87;7.07;;;11.00;99.90;;;;;;929502;150;27379;-79
2022/11/12 10:28:52;;;;;;;10.07;6.83;;;11.00;99.90;;;;;;927741;151;27388;-79
2022/11/12 10:31:18;;;;;;;7.77;6.97;;;11.10;99.90;;;;;;928627;151;27395;-79
2022/11/12 10:33:45;;;;;;;7.77;6.97;;;11.10;99.90;;;;;;928461;151;27364;-78
2022/11/12 10:36:23;;;;;;;8.90;7.83;;;11.20;99.90;;;;;;928434;151;27376;-78
2022/11/12 10:38:50;;;;;;;9.47;7.77;;;11.30;99.90;;;;;;928135;151;27368;-79
2022/11/12 10:41:22;;;;;;;9.43;8.43;;;11.30;99.90;;;;;;928415;151;27419;-79
2022/11/12 10:43:58;;;;;;;8.20;7.40;;;11.40;99.90;;;;;;928171;151;27500;-78
2022/11/12 10:46:25;;;;;;;8.60;7.47;;;11.40;99.90;;;;;;927783;151;27393;-78
2022/11/12 10:48:54;;;;;;;10.07;7.97;;;11.40;99.90;;;;;;928631;151;27315;-78
2022/11/12 10:51:32;;;;;;;10.33;7.83;;;11.50;99.90;;;;;;932456;150;27539;-79
2022/11/12 10:53:59;;;;;;;11.70;7.23;;;11.50;99.90;;;;;;936325;150;27381;-79
2022/11/12 10:56:28;;;;;;;9.00;7.07;;;11.50;99.90;;;;;;934937;150;27403;-79
2022/11/12 10:59:22;;;;;;;8.67;7.57;;;11.50;99.90;;;;;;936648;150;27335;-79
2022/11/12 11:01:54;;;;;;;8.80;7.50;;;11.40;99.90;;;;;;937391;150;27347;-79
2022/11/12 11:04:32;;;;;;;8.83;7.07;;;11.40;99.90;;;;;;937053;150;28718;-79
2022/11/12 11:07:17;;;;;;;10.83;7.80;;;11.40;99.90;;;;;;936314;150;27323;-78
2022/11/12 11:09:52;;;;;;;10.67;7.63;;;11.40;99.90;;;;;;936555;150;27506;-78
2022/11/12 11:12:22;;;;;;;12.70;7.53;;;11.40;99.90;;;;;;936234;150;27397;-78
2022/11/12 11:14:48;;;;;;;8.67;7.77;;;11.30;99.90;;;;;;936483;150;27395;-78
2022/11/12 11:17:15;;;;;;;8.33;7.43;;;11.30;99.90;;;;;;933049;150;27327;-78
2022/11/12 11:19:41;;;;;;;8.13;6.87;;;11.30;99.90;;;;;;902835;155;27419;-78
2022/11/12 11:22:25;;;;;;;7.87;7.10;;;11.30;99.90;;;;;;919242;156;27460;-78
2022/11/12 11:25:04;;;;;;;7.93;7.13;;;11.30;99.90;;;;;;915906;156;28994;-78
2022/11/12 11:27:39;;;;;;;7.93;7.17;;;11.30;99.90;;;;;;918349;156;27478;-78
2022/11/12 11:30:18;;;;;;;8.50;7.60;;;11.40;99.90;;;;;;908284;156;27305;-78
2022/11/12 11:32:47;;;;;;;7.53;6.83;;;11.40;99.90;;;;;;917713;153;27655;-78
2022/11/12 11:35:32;;;;;;;7.60;6.90;;;11.40;99.90;;;;;;901004;156;27526;-78
2022/11/12 11:38:20;;;;;;;9.10;7.20;;;11.40;99.90;;;;;;906520;156;27432;-78
2022/11/12 11:40:46;;;;;;;7.83;7.03;;;11.50;99.90;;;;;;901761;156;27459;-78
2022/11/12 11:43:18;;;;;;;8.23;7.43;;;11.50;99.90;;;;;;902031;156;27370;-78
2022/11/12 11:45:50;;;;;;;8.43;7.27;;;11.50;99.90;;;;;;917393;153;27477;-78
2022/11/12 11:48:22;;;;;;;7.43;6.73;;;11.50;99.90;;;;;;892375;156;27555;-78
2022/11/12 11:50:52;;;;;;;8.33;7.53;;;11.50;99.90;;;;;;902094;154;27346;-78
2022/11/12 11:53:21;;;;;;;7.63;6.93;;;11.50;99.90;;;;;;919202;152;27432;-78
2022/11/12 11:55:53;;;;;;;7.83;6.77;;;11.60;99.90;;;;;;913917;155;27895;-79
2022/11/12 11:58:35;;;;;;;7.93;7.13;;;11.60;99.90;;;;;;938820;150;27795;-79
2022/11/12 12:01:13;;;;;;;7.37;6.67;;;11.60;99.90;;;;;;935219;150;27455;-78
2022/11/12 12:03:49;;;;;;;10.57;7.00;;;11.60;99.90;;;;;;922088;153;27437;-78
2022/11/12 12:06:24;;;;;;;8.47;6.70;;;11.60;99.90;;;;;;928418;152;27714;-78
2022/11/12 12:09:09;;;;;;;8.33;7.53;;;11.70;99.90;;;;;;912353;154;27515;-79
2022/11/12 12:11:42;;;;;;;10.80;8.33;;;11.70;99.90;;;;;;912436;157;27389;-79
2022/11/12 12:14:42;;;;;;;11.27;10.10;;;11.70;99.90;;;;;;912695;154;27319;-78
2022/11/12 12:17:27;;;;;;;10.57;9.47;;;11.80;99.90;;;;;;911868;157;27390;-78
2022/11/12 12:19:57;;;;;;;9.07;8.27;;;11.80;99.90;;;;;;912055;156;27353;-78
2022/11/12 12:22:41;;;;;;;12.30;10.50;;;11.80;99.90;;;;;;912324;157;28323;-78
2022/11/12 12:25:08;;;;;;;10.97;9.87;;;11.80;99.90;;;;;;912965;156;28012;-78
2022/11/12 12:27:34;;;;;;;12.93;10.87;;;11.90;99.90;;;;;;912720;156;27419;-78
2022/11/12 12:30:03;;;;;;;10.83;9.73;;;11.90;99.90;;;;;;912532;157;27427;-78
2022/11/12 12:32:33;;;;;;;9.50;8.50;;;11.90;99.90;;;;;;938628;151;27422;-78
2022/11/12 12:35:17;;;;;;;9.93;8.93;;;11.90;99.90;;;;;;938120;152;27277;-78
2022/11/12 12:37:50;;;;;;;9.17;8.27;;;12.00;99.90;;;;;;915522;153;27283;-78
2022/11/12 12:40:22;;;;;;;8.77;7.87;;;12.00;99.90;;;;;;923981;154;27933;-79
2022/11/12 12:42:55;;;;;;;7.75;7.00;;;12.00;99.90;;;;;;936128;152;27949;-78
2022/11/12 12:45:36;;;;;;;8.03;7.23;;;12.10;99.90;;;;;;923255;152;27442;-78
2022/11/12 12:48:03;;;;;;;8.53;7.63;;;12.10;99.90;;;;;;912534;154;27453;-78
2022/11/12 12:50:29;;;;;;;8.87;7.97;;;12.20;99.90;;;;;;911985;154;28104;-78
2022/11/12 12:53:01;;;;;;;8.20;7.43;;;12.20;99.90;;;;;;929623;151;27694;-78
2022/11/12 12:55:34;;;;;;;9.57;8.67;;;12.30;99.90;;;;;;928316;151;28093;-78
2022/11/12 12:58:01;;;;;;;8.73;7.90;;;12.40;99.90;;;;;;928539;151;27430;-78
2022/11/12 13:00:36;;;;;;;9.33;7.87;;;12.40;99.90;;;;;;928041;151;27440;-78
2022/11/12 13:03:03;;;;;;;9.20;8.27;;;12.40;99.90;;;;;;928024;151;27440;-78
2022/11/12 13:05:32;;;;;;;8.77;7.97;;;12.50;99.90;;;;;;928772;151;27446;-78
2022/11/12 13:08:02;;;;;;;9.10;8.13;;;12.50;99.90;;;;;;928391;151;27444;-78
2022/11/12 13:10:40;;;;;;;8.97;8.17;;;12.50;99.90;;;;;;927511;151;27430;-78
2022/11/12 13:13:19;;;;;;;10.33;9.23;;;12.50;99.90;;;;;;927819;151;27421;-78
2022/11/12 13:15:46;;;;;;;10.13;9.13;;;12.50;99.90;;;;;;928405;151;27324;-79
2022/11/12 13:18:12;;;;;;;13.90;10.47;;;12.40;99.90;;;;;;927820;151;27385;-78
2022/11/12 13:20:39;;;;;;;12.33;10.73;;;12.40;99.90;;;;;;924447;151;27463;-78